Time;durP1;ratioP1;P1;durP2;ratioP2;P2;SDS_P1;SDS_P2;PMS_P1;PMS_P2;Temp;Humidity;BMP_temperature;BMP_pressure;BME280_temperature;BME280_humidity;BME280_pressure;Samples;Min_cycle;Max_cycle;Signal;HPM_P1;HPM_P2
2023/01/07 01:16:22;;;;;;;13.20;2.53;;;;;;;9.91;100.00;99365.19;6296704;22;20020;-96
2023/01/07 03:16:28;;;;;;;15.25;3.33;;;;;;;9.64;100.00;99181.56;6250883;22;20016;-96
2023/01/07 03:22:34;;;;;;;12.25;3.28;;;;;;;9.68;100.00;99143.53;6235051;23;20012;-96
2023/01/07 03:25:20;;;;;;;11.82;2.22;;;;;;;9.68;100.00;99148.66;6227022;23;20008;-95
2023/01/07 03:28:41;;;;;;;11.02;3.25;;;;;;;9.59;100.00;99121.00;6235220;23;20000;-95
2023/01/07 07:36:43;;;;;;;13.63;3.03;;;;;;;-143.29;100.00;62188.47;6249765;22;20019;-95
2023/01/07 07:39:15;;;;;;;13.18;2.45;;;;;;;-143.29;100.00;62188.47;6226129;23;20490;-95
2023/01/07 07:41:44;;;;;;;13.65;2.28;;;;;;;-143.29;100.00;62188.47;6224475;23;20008;-96
2023/01/07 07:44:15;;;;;;;14.05;2.97;;;;;;;-143.29;100.00;62188.47;6224998;23;20004;-96
2023/01/07 07:46:49;;;;;;;10.45;2.53;;;;;;;-143.29;100.00;62188.47;6224458;23;20015;-95
2023/01/07 07:49:15;;;;;;;15.63;2.85;;;;;;;-143.29;100.00;62188.47;6222725;23;20004;-95
2023/01/07 07:51:40;;;;;;;13.18;2.30;;;;;;;-143.29;100.00;62188.47;6219901;23;20454;-94
2023/01/07 07:54:06;;;;;;;15.38;3.00;;;;;;;-143.29;100.00;62188.47;6220173;23;20006;-94
2023/01/07 07:56:31;;;;;;;17.13;3.00;;;;;;;-143.29;100.00;62188.47;6218930;23;20004;-93
2023/01/07 07:58:57;;;;;;;15.77;3.63;;;;;;;-143.29;100.00;62188.47;6219263;23;20067;-94
2023/01/07 08:01:22;;;;;;;19.02;2.28;;;;;;;-143.29;100.00;62188.47;6218824;23;20008;-93
2023/01/07 08:03:48;;;;;;;21.23;3.03;;;;;;;-143.29;100.00;62188.47;6219705;23;20012;-94
2023/01/07 08:06:14;;;;;;;16.45;2.80;;;;;;;-143.29;100.00;62188.47;6219481;23;20027;-94
2023/01/07 08:08:40;;;;;;;12.38;3.25;;;;;;;-143.29;100.00;62188.47;6220272;23;20004;-93
2023/01/07 08:11:06;;;;;;;15.65;2.90;;;;;;;-143.29;100.00;62188.47;6218887;23;20062;-93
2023/01/07 08:13:32;;;;;;;19.08;3.00;;;;;;;-143.29;100.00;62188.47;6219095;23;20015;-93
2023/01/07 08:15:57;;;;;;;16.67;3.13;;;;;;;-143.29;100.00;62188.47;6218560;23;20004;-96
2023/01/07 08:18:23;;;;;;;14.60;2.70;;;;;;;-143.29;100.00;62188.47;6218066;23;20091;-93
2023/01/07 08:20:49;;;;;;;17.88;2.60;;;;;;;-143.29;100.00;62188.47;6217952;23;20744;-94
2023/01/07 08:23:15;;;;;;;20.35;2.85;;;;;;;-143.29;100.00;62188.47;6218268;23;20004;-93
2023/01/07 08:25:40;;;;;;;16.17;3.03;;;;;;;-143.29;100.00;62188.47;6218468;22;20012;-93
2023/01/07 08:28:06;;;;;;;18.38;3.60;;;;;;;-143.29;100.00;62188.47;6218463;23;20014;-93
2023/01/07 08:30:31;;;;;;;17.42;2.60;;;;;;;-143.29;100.00;62188.47;6218365;23;20040;-93
2023/01/07 08:33:30;;;;;;;23.40;4.38;;;;;;;-143.29;100.00;62188.47;6223126;23;20004;-96
2023/01/07 08:54:14;;;;;;;12.90;2.75;;;;;;;-143.29;100.00;62188.47;6251485;22;20016;-95
2023/01/07 08:56:40;;;;;;;18.50;3.72;;;;;;;-143.29;100.00;62188.47;6206266;23;20009;-95
2023/01/07 08:59:05;;;;;;;22.42;3.95;;;;;;;-143.29;100.00;62188.47;6188907;23;20092;-95
2023/01/07 09:01:31;;;;;;;16.10;3.38;;;;;;;-143.29;100.00;62188.47;6189060;23;20018;-96
2023/01/07 09:03:57;;;;;;;15.05;5.53;;;;;;;-143.29;100.00;62188.47;6189612;23;20062;-96
2023/01/07 09:06:27;;;;;;;20.63;3.92;;;;;;;-143.29;100.00;62188.47;6191602;23;20005;-96
2023/01/07 09:08:53;;;;;;;19.60;2.63;;;;;;;-143.29;100.00;62188.47;6190509;23;20083;-95
2023/01/07 09:11:43;;;;;;;;;;;;;;;;;;;;;
2023/01/07 09:14:42;;;;;;;18.98;4.63;;;;;;;-143.29;100.00;62188.47;6218827;23;20591;-95
2023/01/07 12:35:19;;;;;;;10.50;1.35;;;;;;;-143.29;100.00;62188.47;6258259;22;20020;-93
2023/01/07 18:56:01;;;;;;;8.25;2.05;;;;;;;4.67;100.00;98499.91;5105559;27;20442;-96
2023/01/07 18:58:27;;;;;;;13.32;1.88;;;;;;;4.49;100.00;98481.47;5076949;28;20037;-95
2023/01/07 19:00:53;;;;;;;14.88;2.22;;;;;;;4.44;100.00;98509.03;5073395;28;20021;-95
2023/01/07 19:03:19;;;;;;;9.98;1.65;;;;;;;4.41;100.00;98499.00;5067439;28;20115;-96
2023/01/07 19:05:44;;;;;;;15.20;3.22;;;;;;;4.45;100.00;98495.34;5059522;28;20441;-96
2023/01/07 19:08:10;;;;;;;13.68;2.25;;;;;;;4.56;100.00;98512.53;5070346;28;20116;-95
2023/01/07 19:10:40;;;;;;;17.58;2.20;;;;;;;4.52;100.00;98496.59;5085128;28;20112;-95
2023/01/07 19:13:05;;;;;;;9.07;1.88;;;;;;;4.38;100.00;98483.88;5074166;28;20032;-96
2023/01/07 19:15:32;;;;;;;15.43;3.70;;;;;;;4.33;100.00;98496.13;5074591;28;20029;-95
2023/01/07 19:17:58;;;;;;;19.17;2.47;;;;;;;4.32;100.00;98485.09;5077911;28;20051;-95
2023/01/07 19:20:23;;;;;;;17.50;2.58;;;;;;;4.28;100.00;98499.75;5078129;28;20025;-95
2023/01/07 19:22:49;;;;;;;17.77;2.13;;;;;;;4.24;100.00;98492.38;5077763;28;20024;-96
2023/01/07 19:25:14;;;;;;;11.80;2.35;;;;;;;4.24;100.00;98503.44;5076836;28;20473;-95
2023/01/07 19:27:40;;;;;;;20.20;2.10;;;;;;;4.02;100.00;98477.59;5090173;28;20036;-95
2023/01/07 19:30:06;;;;;;;17.00;2.30;;;;;;;4.00;100.00;98487.06;5072097;28;20036;-95
2023/01/07 19:32:32;;;;;;;14.90;2.22;;;;;;;4.18;100.00;98501.25;5073242;28;20124;-95
2023/01/07 19:35:06;;;;;;;15.90;2.72;;;;;;;4.16;100.00;98499.72;5324885;23;20344;-96
2023/01/07 19:37:49;;;;;;;22.40;4.68;;;;;;;4.02;100.00;98475.88;5270125;23;20046;-95
2023/01/07 19:40:15;;;;;;;21.30;2.60;;;;;;;4.13;100.00;98499.91;5335321;23;20305;-95
2023/01/07 19:42:56;;;;;;;18.10;2.60;;;;;;;4.06;100.00;98496.91;5227431;23;20057;-96
2023/01/07 19:47:59;;;;;;;19.85;2.45;;;;;;;4.13;100.00;98485.41;5057936;23;20068;-95
2023/01/07 19:50:25;;;;;;;25.20;4.00;;;;;;;3.98;100.00;98476.16;5063974;28;20032;-96
2023/01/07 19:52:51;;;;;;;18.45;2.50;;;;;;;4.23;100.00;98501.78;5053520;28;20021;-95
2023/01/07 19:55:16;;;;;;;20.80;3.20;;;;;;;4.27;100.00;98484.56;5042143;28;20044;-95
2023/01/07 19:57:42;;;;;;;21.08;2.70;;;;;;;4.25;100.00;98484.66;5022289;28;20026;-94
2023/01/07 20:00:21;;;;;;;36.88;4.00;;;;;;;4.27;100.00;98508.34;5029776;28;20050;-95
2023/01/07 20:02:50;;;;;;;24.40;3.15;;;;;;;4.44;100.00;98526.91;5010682;28;20391;-96
2023/01/07 20:05:15;;;;;;;25.33;3.45;;;;;;;4.37;100.00;98512.88;5015570;28;20045;-96
2023/01/07 20:07:41;;;;;;;24.67;4.68;;;;;;;4.42;100.00;98500.66;5021917;28;20029;-96
2023/01/07 20:10:07;;;;;;;16.17;3.08;;;;;;;4.68;100.00;98521.97;5014095;28;20301;-95
2023/01/07 20:12:33;;;;;;;27.63;4.20;;;;;;;4.79;100.00;98518.75;5021263;28;20022;-93
2023/01/07 20:14:58;;;;;;;31.25;3.92;;;;;;;4.91;100.00;98507.72;5022099;28;20036;-95
2023/01/07 20:17:45;;;;;;;25.17;3.22;;;;;;;4.78;100.00;98507.69;5024283;28;20026;-96
2023/01/07 20:20:59;;;;;;;17.83;3.17;;;;;;;4.70;100.00;98485.16;5023774;28;20129;-96
2023/01/07 21:13:33;;;;;;;33.42;5.40;;;;;;;5.46;100.00;98475.94;5000377;28;20054;-96
2023/01/07 21:16:02;;;;;;;45.20;4.63;;;;;;;5.35;100.00;98478.38;4993288;28;20027;-96
2023/01/07 21:18:34;;;;;;;37.28;6.00;;;;;;;5.37;100.00;98473.97;4979699;28;20034;-96
2023/01/07 21:21:08;;;;;;;36.28;4.78;;;;;;;5.45;100.00;98479.38;4985384;28;20067;-96
2023/01/07 21:23:34;;;;;;;30.52;4.32;;;;;;;5.45;100.00;98481.94;4990148;28;20039;-96
2023/01/07 21:26:01;;;;;;;27.60;5.15;;;;;;;5.46;100.00;98483.59;4969671;28;20093;-96
2023/01/07 21:28:27;;;;;;;26.38;3.70;;;;;;;5.33;100.00;98478.47;4978087;28;20031;-96
2023/01/07 21:33:43;;;;;;;27.45;4.30;;;;;;;5.44;100.00;98485.44;5180339;23;20049;-96
2023/01/07 21:36:14;;;;;;;41.83;6.15;;;;;;;5.54;100.00;98476.22;5007962;28;20049;-95
